Weather Top, Arizona (BMGR) Weather observations

Data are for 10 minute period ending at time listed.
 Day   Time   Solar   Ave.   Ave.  Ave.  Vector  Max.   Total    
  of    of     Rad.   Air    Rel.  Wind   Wind   Wind  Precip.   
Year   Day            Temp.  Hum.  Speed  Dir.   Gust            
2026   (MST)  Kw/m2    F      %     mph   deg.    mph    in.     
-----------------------------------------------------------------
 247   18:35   0.02   89.5    30   10.9   227    19.4    0.00 
 247   18:40   0.01   89.3    30    9.1   230    13.8    0.00 
 247   18:45   0.01   89.2    30    9.1   229    12.7    0.00 
 247   18:50   0.01   89.0    30    9.9   226    15.5    0.00 
 247   18:55   0.00   88.7    31    9.1   235    14.4    0.00 
 247   19:00   0.00   88.4    31    9.2   232    14.4    0.00 
 247   19:05   0.00   88.1    32    9.8   230    15.5    0.00 
 247   19:10   0.00   88.1    32    8.2   228    11.6    0.00 
 247   19:15   0.00   88.0    32    7.9   227    15.5    0.00 
 247   19:20   0.00   87.8    32    8.8   227    15.5    0.00 
 247   19:25   0.00   87.6    32    8.8   230    12.1    0.00 
 247   19:30   0.00   87.4    32    8.2   231    12.1    0.00 
 247   19:35   0.00   87.3    33    8.3   230    13.8    0.00 
 247   19:40   0.00   87.2    33    9.6   230    15.5    0.00 
 247   19:45   0.00   87.0    33    9.5   237    12.7    0.00 
 247   19:50   0.00   86.9    34    8.7   230    12.7    0.00 
 247   19:55   0.00   86.7    34    8.2   229    12.7    0.00 
 247   20:00   0.00   86.5    34    8.6   228    13.3    0.00 
 247   20:05   0.00   86.3    35    8.0   228    13.3    0.00 
 247   20:10   0.00   86.1    35    6.9   212    11.6    0.00 
 247   20:15   0.00   86.0    36    7.5   227    13.3    0.00 
 247   20:20   0.00   85.8    36    6.1   223    10.5    0.00 
 247   20:25   0.00   85.7    36    7.0   230    12.1    0.00 
 247   20:30   0.00   85.6    36    7.7   230    12.7    0.00 
 247   20:35   0.00   85.6    36    8.9   233    11.6    0.00 
 247   20:40   0.00   85.5    36    8.5   223    12.7    0.00 
 247   20:45   0.00   85.4    36    8.0   226    12.7    0.00 
 247   20:50   0.00   85.3    36    7.3   223    11.6    0.00 
 247   20:55   0.00   85.2    36    6.9   224    16.0    0.00 
 247   21:00   0.00   85.1    36    6.4   222    13.3    0.00 
 247   21:05   0.00   85.0    36    5.6   224     9.9    0.00 
 247   21:10   0.00   84.9    36    6.1   230    12.7    0.00 
 247   21:15   0.00   84.8    36    6.1   219    12.7    0.00 
 247   21:20   0.00   84.8    36    5.7   212     8.8    0.00 
 247   21:25   0.00   84.7    36    6.4   223    13.3    0.00 
 247   21:30   0.00   84.6    36    6.7   217    13.8    0.00 
 247   21:35   0.00   84.4    36    6.1   209    10.5    0.00 
 247   21:40   0.00   84.2    36    6.0   210     9.9    0.00 
 247   21:45   0.00   84.1    36    6.6   205    11.0    0.00 
 247   21:50   0.00   84.2    36    6.6   212    11.6    0.00 
 247   21:55   0.00   84.2    36    7.7   212    11.6    0.00 
 247   22:00   0.00   84.1    36    7.2   206    10.5    0.00 
 247   22:05   0.00   83.9    37    6.5   201    10.5    0.00 
 247   22:10   0.00   83.9    37    6.2   202     9.3    0.00 
 247   22:15   0.00   83.9    37    7.0   206     9.9    0.00 
 247   22:20   0.00   83.8    37    6.2   203     9.3    0.00 
 247   22:25   0.00   83.9    37    6.2   206     9.9    0.00 
 247   22:30   0.00   83.9    37    6.0   205     8.8    0.00 
 247   22:35   0.00   83.8    37    5.8   204     8.2    0.00 
 247   22:40   0.00   83.9    37    6.3   212     8.8    0.00 
 247   22:45   0.00   83.8    37    5.7   214     9.3    0.00 
 247   22:50   0.00   83.9    37    5.6   222     8.2    0.00 
 247   22:55   0.00   83.8    37    5.1   225     8.8    0.00 
 247   23:00   0.00   83.5    37    4.9   220     8.8    0.00 
 247   23:05   0.00   83.4    37    5.5   216     7.7    0.00 
 247   23:10   0.00   83.5    37    6.6   214     9.3    0.00 
 247   23:15   0.00   83.5    37    5.9   208     9.3    0.00 
 247   23:20   0.00   83.4    37    5.6   207     8.2    0.00 
 247   23:25   0.00   83.2    37    4.2   186     7.1    0.00 
 247   23:30   0.00   82.6    38    2.9   163     4.9    0.00 
 247   23:35   0.00   82.5    38    3.2   146     5.4    0.00 
 247   23:40   0.00   82.5    38    3.3   152     5.4    0.00 
 247   23:45   0.00   82.4    38    3.6   155     5.4    0.00 
 247   23:50   0.00   82.5    38    3.6   165     5.4    0.00 
 247   23:55   0.00   82.6    38    4.1   164     6.5    0.00 
 248    0:00   0.00   82.8    38    5.1   171     8.2    0.00 
 248    0:05   0.00   82.7    38    4.4   177     7.1    0.00 
 248    0:10   0.00   82.4    38    4.0   177     6.0    0.00 
 248    0:15   0.00   82.4    38    5.3   184     7.7    0.00 
 248    0:20   0.00   82.6    38    5.6   191     9.3    0.00 
 248    0:25   0.00   82.7    38    5.2   195     8.2    0.00 
 248    0:30   0.00   82.8    38    5.6   203     8.8    0.00 
 248    0:35   0.00   82.9    38    5.4   202     7.7    0.00 
 248    0:40   0.00   83.0    38    6.2   204    10.5    0.00 
 248    0:45   0.00   82.8    39    5.1   207     7.7    0.00 
 248    0:50   0.00   82.9    39    5.4   216     8.8    0.00 
 248    0:55   0.00   83.0    39    4.8   216     9.3    0.00 
 248    1:00   0.00   82.9    39    5.0   216     8.8    0.00 
 248    1:05   0.00   82.9    39    4.8   214     8.2    0.00 
 248    1:10   0.00   82.8    39    5.3   221     8.2    0.00 
 248    1:15   0.00   82.9    39    6.2   224    12.7    0.00 
 248    1:20   0.00   82.8    39    5.9   232    12.1    0.00 
 248    1:25   0.00   82.7    39    6.4   229    11.6    0.00 
 248    1:30   0.00   82.3    39    5.7   226     9.3    0.00 
 248    1:35   0.00   82.0    39    5.7   222    10.5    0.00 
 248    1:40   0.00   81.9    40    5.4   227     8.8    0.00 
 248    1:45   0.00   81.7    40    4.2   229     7.7    0.00 
 248    1:50   0.00   81.7    40    5.0   224     7.7    0.00 
 248    1:55   0.00   81.5    40    4.9   210     7.7    0.00 
 248    2:00   0.00   81.2    41    5.4   205    10.5    0.00 
 248    2:05   0.00   81.1    41    6.1   220     8.8    0.00 
 248    2:10   0.00   81.0    41    4.4   226     8.2    0.00 
 248    2:15   0.00   80.8    42    4.1   235     7.1    0.00 
 248    2:20   0.00   80.8    42    4.3   231     7.7    0.00 
 248    2:25   0.00   80.7    42    4.5   232     7.7    0.00 
 248    2:30   0.00   80.6    42    2.5   235     7.7    0.00 
 248    2:35   0.00   80.2    42    2.7   234     6.5    0.00 
 248    2:40   0.00   80.0    42    3.9   232     7.7    0.00 
 248    2:45   0.00   80.3    41    5.6   236     9.9    0.00 
 248    2:50   0.00   80.5    41    4.9   230     7.7    0.00 
 248    2:55   0.00   80.7    41    4.3   226     6.5    0.00 
 248    3:00   0.00   80.7    41    5.4   219     9.3    0.00 
 248    3:05   0.00   80.5    41    5.3   198     8.2    0.00 
 248    3:10   0.00   80.2    41    4.8   176     9.3    0.00 
 248    3:15   0.00   79.9    42    3.8   133     5.4    0.00 
 248    3:20   0.00   79.9    42    5.1   123     7.1    0.00 
 248    3:25   0.00   80.0    42    5.5   124     8.2    0.00 
 248    3:30   0.00   80.0    42    5.6   112     8.8    0.00 
 248    3:35   0.00   79.9    42    3.4   135     6.0    0.00 
 248    3:40   0.00   79.9    42    3.6   155     6.0    0.00 
 248    3:45   0.00   80.0    42    4.2   200     7.1    0.00 
 248    3:50   0.00   80.1    42    5.1   204     8.2    0.00 
 248    3:55   0.00   80.2    42    4.8   213     7.7    0.00 
 248    4:00   0.00   80.0    42    3.5   234     6.5    0.00 
 248    4:05   0.00   80.0    42    3.8   243     6.0    0.00 
 248    4:10   0.00   80.0    42    4.5   223     8.2    0.00 
 248    4:15   0.00   80.4    41    5.3   220     8.8    0.00 
 248    4:20   0.00   80.3    41    4.4   228     6.5    0.00 
 248    4:25   0.00   80.2    41    3.0   230     4.9    0.00 
 248    4:30   0.00   80.0    41    3.1   220     6.0    0.00 
 248    4:35   0.00   80.2    40    4.5   206     6.0    0.00 
 248    4:40   0.00   80.4    40    3.7   203     6.0    0.00 
 248    4:45   0.00   80.5    39    4.2   204     7.1    0.00 
 248    4:50   0.00   80.6    39    4.7   187     7.1    0.00 
 248    4:55   0.00   80.4    39    4.8   183     7.1    0.00 
 248    5:00   0.00   80.3    40    4.1   168     6.5    0.00 
 248    5:05   0.00   80.2    40    3.0   149     5.4    0.00 
 248    5:10   0.00   80.1    40    2.3   166     3.8    0.00 
 248    5:15   0.00   80.2    40    0.1   199     2.1    0.00 
 248    5:20   0.00   80.2    40    1.4   206     3.2    0.00 
 248    5:25   0.00   80.0    40    3.1   194     4.3    0.00 
 248    5:30   0.00   80.3    38    3.7   201     5.4    0.00 
 248    5:35   0.00   80.8    37    4.4   210     6.5    0.00 
 248    5:40   0.00   80.9    37    4.0   198     6.0    0.00 
 248    5:45   0.00   80.9    37    4.2   206     6.0    0.00 
 248    5:50   0.00   80.8    38    3.0   195     4.3    0.00 
 248    5:55   0.00   80.5    38    2.3   172     3.8    0.00 
 248    6:00   0.00   80.2    39    1.8   128     2.6    0.00 
 248    6:05   0.00   79.8    40    2.2   106     3.8    0.00 
 248    6:10   0.00   79.7    40    3.1   100     3.8    0.00 
 248    6:15   0.01   79.7    41    3.5    87     4.3    0.00 
 248    6:20   0.02   79.8    40    4.0    83     4.9    0.00 
 248    6:25   0.03   79.7    40    4.4    86     4.9    0.00 
 248    6:30   0.04   79.8    40    3.7    90     4.9    0.00 
 248    6:35   0.06   80.3    39    3.7   102     4.3    0.00 
 248    6:40   0.06   80.5    38    3.8   107     4.9    0.00 
 248    6:45   0.08   80.8    37    3.2   120     4.9    0.00 
 248    6:50   0.13   81.3    37    2.1   121     3.8    0.00 
 248    6:55   0.10   81.6    36    1.3   143     2.6    0.00 
 248    7:00   0.10   81.4    36    2.5   149     3.8    0.00 
 248    7:05   0.16   81.3    37    2.8   140     4.3    0.00 
 248    7:10   0.13   81.5    36    3.3   141     4.3    0.00 
 248    7:15   0.13   81.3    37    3.2   134     4.9    0.00 
 248    7:20   0.17   81.3    38    3.6   109     4.9    0.00 
 248    7:25   0.19   81.7    38    3.9   100     5.4    0.00 
 248    7:30   0.25   81.7    37    5.2    95     7.1    0.00 
 248    7:35   0.26   81.9    38    5.6    98     7.7    0.00 
 248    7:40   0.24   81.8    38    6.2   103     8.2    0.00 
 248    7:45   0.29   82.1    38    5.8   106     8.2    0.00 
 248    7:50   0.34   82.6    38    5.5   109     7.1    0.00 
 248    7:55   0.32   82.7    38    5.2   110     7.1    0.00 
 248    8:00   0.32   83.2    37    4.8   113     6.5    0.00 
 248    8:05   0.35   83.8    36    4.5   110     6.5    0.00 
 248    8:10   0.42   83.9    36    5.4   118     7.7    0.00 
 248    8:15   0.40   84.3    35    5.1   125     7.1    0.00 
 248    8:20   0.41   84.7    34    4.3   152     7.1    0.00 
 248    8:25   0.36   85.2    32    3.6   154     6.0    0.00 
 248    8:30   0.38   85.2    32    4.1   176     6.5    0.00 
 248    8:35   0.35   85.3    33    3.6   152     6.5    0.00 
 248    8:40   0.36   85.1    34    2.8   148     6.0    0.00 
 248    8:45   0.38   85.8    33    2.5   206     6.0    0.00 
 248    8:50   0.39   85.5    34    2.9   203     6.0    0.00 
 248    8:55   0.45   85.2    34    3.2   179     6.0    0.00 
 248    9:00   0.42   85.7    34    2.4   168     7.1    0.00 
 248    9:05   0.50   86.5    33    1.7   177     4.3    0.00 
 248    9:10   0.48   86.5    34    2.4   192     6.0    0.00 
 248    9:15   0.44   86.3    34    2.5   165     6.0    0.00 
 248    9:20   0.49   85.9    34    2.0   167     5.4    0.00 
 248    9:25   0.46   86.4    34    1.6   142     4.9    0.00 
 248    9:30   0.53   87.1    32    1.9   160     4.9    0.00 
 248    9:35   0.59   87.4    32    1.9   182     6.5    0.00 
 248    9:40   0.51   87.6    32    2.6   193     7.1    0.00 
 248    9:45   0.54   87.8    32    2.5   178     6.0    0.00 
 248    9:50   0.55   87.2    32    0.6   102     3.8    0.00 
 248    9:55   0.54   89.0    31    2.8   148     8.2    0.00 
 248   10:00   0.55   89.9    30    2.8   151     6.5    0.00 
 248   10:05   0.62   90.3    30    3.5   192     7.1    0.00 
 248   10:10   0.65   88.7    31    2.7   147     6.0    0.00 
 248   10:15   0.55   90.4    30    2.1     1     6.0    0.00 
 248   10:20   0.66   90.0    30    2.7    18     7.1    0.00 
 248   10:25   0.72   89.6    31    3.5   236     7.7    0.00 
 248   10:30   0.79   89.8    30    4.5   226     9.3    0.00 
 248   10:35   0.70   89.5    30    4.8   216     9.3    0.00 
 248   10:40   0.79   89.0    30    3.7   199     7.1    0.00 
 248   10:45   0.72   89.1    30    4.0   183     7.1    0.00 
 248   10:50   0.85   90.0    30    3.8   224     7.7    0.00 
 248   10:55   0.82   91.1    29    5.2   216    11.6    0.00 
 248   11:00   0.63   89.9    29    2.7   139     6.5    0.00 
 248   11:05   0.69   91.2    29    2.5   223     6.0    0.00 
 248   11:10   0.88   91.1    29    1.5   109     4.9    0.00 
 248   11:15   0.85   91.9    28    2.6   218     7.7    0.00 
 248   11:20   0.74   91.4    28    4.4   196     8.8    0.00 
 248   11:25   0.71   91.1    28    3.5   191     7.7    0.00 
 248   11:30   0.71   90.6    29    3.1   281     6.0    0.00 
 248   11:35   0.57   91.3    28    2.6   139     7.7    0.00 
 248   11:40   0.90   92.5    27    3.3   195     5.4    0.00 
 248   11:45   0.84   92.1    27    3.6   183     8.8    0.00 
 248   11:50   0.80   93.0    26    4.3   166     8.8    0.00 
 248   11:55   0.77   94.8    25    4.0   200     9.3    0.00 
 248   12:00   0.58   93.4    26    3.3   158     6.5    0.00 
 248   12:05   0.91   94.0    26    5.0   200     8.8    0.00 
 248   12:10   0.85   94.0    26    3.1   159     7.1    0.00 
 248   12:15   0.88   94.5    26    3.5    66     7.1    0.00 
 248   12:20   0.90   95.8    24    4.6   223     9.3    0.00 
 248   12:25   0.93   93.2    25    3.0   232     7.7    0.00 
 248   12:30   0.87   93.7    25    3.5   210     9.3    0.00 
 248   12:35   0.89   95.6    24    5.1   194    12.1    0.00 
 248   12:40   0.88   94.2    25    5.8   214    13.8    0.00 
 248   12:45   0.57   93.4    25    4.6   201     9.9    0.00 
 248   12:50   0.56   92.7    26    3.3   310     8.8    0.00 
 248   12:55   0.65   92.3    26    5.0   245     9.3    0.00 
 248   13:00   0.88   92.3    26    2.9   340     6.0    0.00 
 248   13:05   0.88   93.0    25    4.8   352     9.3    0.00 
 248   13:10   0.90   95.3    24    5.6   200     9.9    0.00 
 248   13:15   0.88   96.8    23    6.5   220    12.1    0.00 
 248   13:20   0.87   94.3    25    7.1   224    11.6    0.00 
 248   13:25   0.78   93.3    25    3.5   228     7.1    0.00 
 248   13:30   0.86   93.1    25    2.9   164     8.8    0.00 
 248   13:35   0.52   94.3    25    5.9   213    10.5    0.00 
 248   13:40   0.72   94.2    25    5.4   184     8.2    0.00 
 248   13:45   0.87   94.3    25    1.8   186     7.1    0.00 
 248   13:50   0.87   96.7    24    4.0   134    10.5    0.00 
 248   13:55   0.86   98.4    23    2.9    59     4.9    0.00 
 248   14:00   0.84   98.4    22    4.5   204    12.7    0.00 
 248   14:05   0.88   96.3    24    5.1   326     9.3    0.00 
 248   14:10   0.83   95.7    24    5.2    31    12.7    0.00 
 248   14:15   0.84   97.4    23    5.1    83     9.3    0.00 
 248   14:20   0.83   97.4    23    5.6    20     9.9    0.00 
 248   14:25   0.85   95.5    24    3.8   301     9.3    0.00 
 248   14:30   0.88   96.6    24    4.3   326    11.0    0.00 
 248   14:35   0.72   95.3    25    5.7   351    10.5    0.00 
 248   14:40   0.71   97.3    23    5.7    84    11.6    0.00 
 248   14:45   0.79   96.8    24    4.3    76     8.2    0.00 
 248   14:50   0.74   98.1    23    5.1   112     9.9    0.00 
 248   14:55   0.56   96.2    24    4.7   304     8.8    0.00 
 248   15:00   0.46   95.7    24    4.7   324    10.5    0.00 
 248   15:05   0.49   95.4    25    5.1    96     8.2    0.00 
 248   15:10   0.32   95.9    24    5.3    91    10.5    0.00 
 248   15:15   0.52   94.8    25    6.6   327    13.8    0.00 
 248   15:20   0.75   94.6    25    6.2   303    12.7    0.00 
 248   15:25   0.72   95.8    25    5.0    74     8.8    0.00 
 248   15:30   0.68   96.4    24    5.8   325    13.3    0.00 
 248   15:35   0.58   95.7    25    5.7   328    12.1    0.00 
 248   15:40   0.63   95.5    25    6.7   312    12.1    0.00 
 248   15:45   0.57   96.1    24    4.6    20     8.8    0.00 
 248   15:50   0.28   96.7    24    5.6    90    14.9    0.00 
 248   15:55   0.56   95.4    25    4.9   334     9.3    0.00 
 248   16:00   0.54   97.0    24    5.1    92    10.5    0.00 
 248   16:05   0.47   96.5    24    4.7    84     8.2    0.00 
 248   16:10   0.28   96.5    24    5.6   111     9.9    0.00 
 248   16:15   0.24   96.0    24    5.6   102     9.3    0.00 
 248   16:20   0.32   95.2    25    4.4   346     9.3    0.00 
 248   16:25   0.39   95.7    24    4.6    96     9.9    0.00 
 248   16:30   0.30   95.8    24    4.4    66    11.6    0.00 
 248   16:35   0.17   93.9    26    6.1   317    11.0    0.00 
 248   16:40   0.17   93.8    26    4.7   124     9.9    0.00 
 248   16:45   0.19   93.9    26    4.5   324    10.5    0.00 
 248   16:50   0.14   93.8    26    4.4   108    10.5    0.00 
 248   16:55   0.14   93.6    26    4.7   340     9.3    0.00 
 248   17:00   0.20   93.6    26    4.0    99     7.7    0.00 
 248   17:05   0.14   93.6    26    3.8    30     8.8    0.00 
 248   17:10   0.18   93.6    26    4.3    20    11.0    0.00 
 248   17:15   0.26   93.9    26    4.7   349    12.1    0.00 
 248   17:20   0.25   94.2    26    4.1   331     9.3    0.00 
 248   17:25   0.14   94.4    26    3.3     4     8.2    0.00 
 248   17:30   0.10   93.5    27    5.5   317    11.0    0.00 
 248   17:35   0.11   92.3    28    6.3   328    11.6    0.00 
 248   17:40   0.07   92.4    28    5.5   347    11.6    0.00 
 248   17:45   0.05   91.5    28    7.1   335    12.1    0.00 
 248   17:50   0.13   91.5    28    6.7   348    12.1    0.00 
 248   17:55   0.16   91.7    28    9.3   336    17.2    0.00 
 248   18:00   0.13   91.4    29    7.2   350    13.3    0.00 
 248   18:05   0.09   90.8    30    7.3   335    13.8    0.00 
 248   18:10   0.05   89.9    30   10.0   328    15.5    0.00 
 248   18:15   0.03   89.4    31    6.7   331    14.9    0.00 
 248   18:20   0.04   89.0    32    8.6   325    13.3    0.00 
 248   18:25   0.04   88.6    32    8.1   328    15.5    0.00 
 248   18:30   0.03   88.3    33    8.6   332    14.9    0.00 

Return to Weather Top graphs page.


Western Regional Climate Center,wrcc@dri.edu